sensor_id;sensor_type;location;lat;lon;timestamp;P1;durP1;ratioP1;P2;durP2;ratioP2
76103;SDS011;64831;44.870;37.336;2023-05-15T00:00:11;19.60;;;7.38;;
76103;SDS011;64831;44.870;37.336;2023-05-15T00:02:38;13.93;;;7.30;;
76103;SDS011;64831;44.870;37.336;2023-05-15T00:05:04;22.23;;;7.38;;
76103;SDS011;64831;44.870;37.336;2023-05-15T00:07:32;13.70;;;7.63;;
76103;SDS011;64831;44.870;37.336;2023-05-15T00:10:01;13.60;;;6.97;;
76103;SDS011;64831;44.870;37.336;2023-05-15T00:12:27;16.27;;;7.57;;
76103;SDS011;64831;44.870;37.336;2023-05-15T00:14:53;15.85;;;7.68;;
76103;SDS011;64831;44.870;37.336;2023-05-15T00:17:18;16.98;;;7.82;;
76103;SDS011;64831;44.870;37.336;2023-05-15T00:19:44;15.90;;;7.65;;
76103;SDS011;64831;44.870;37.336;2023-05-15T00:22:10;15.45;;;7.95;;
76103;SDS011;64831;44.870;37.336;2023-05-15T00:24:36;13.15;;;7.22;;
76103;SDS011;64831;44.870;37.336;2023-05-15T00:27:02;9.85;;;5.22;;
76103;SDS011;64831;44.870;37.336;2023-05-15T00:29:28;11.55;;;6.20;;
76103;SDS011;64831;44.870;37.336;2023-05-15T00:31:54;9.38;;;4.85;;
76103;SDS011;64831;44.870;37.336;2023-05-15T00:34:23;11.82;;;6.13;;
76103;SDS011;64831;44.870;37.336;2023-05-15T00:36:49;9.65;;;4.80;;
76103;SDS011;64831;44.870;37.336;2023-05-15T00:39:15;9.13;;;4.70;;
76103;SDS011;64831;44.870;37.336;2023-05-15T00:41:42;10.27;;;4.75;;
76103;SDS011;64831;44.870;37.336;2023-05-15T00:44:09;9.23;;;4.90;;
76103;SDS011;64831;44.870;37.336;2023-05-15T00:46:37;7.18;;;4.35;;
76103;SDS011;64831;44.870;37.336;2023-05-15T00:49:04;7.15;;;4.80;;
76103;SDS011;64831;44.870;37.336;2023-05-15T00:51:31;8.18;;;4.25;;
76103;SDS011;64831;44.870;37.336;2023-05-15T00:53:57;7.18;;;4.35;;
76103;SDS011;64831;44.870;37.336;2023-05-15T00:56:24;13.18;;;4.30;;
76103;SDS011;64831;44.870;37.336;2023-05-15T00:58:54;8.82;;;4.72;;
76103;SDS011;64831;44.870;37.336;2023-05-15T01:01:24;10.75;;;5.00;;
76103;SDS011;64831;44.870;37.336;2023-05-15T01:03:50;8.77;;;4.82;;
76103;SDS011;64831;44.870;37.336;2023-05-15T01:06:16;10.13;;;4.15;;
76103;SDS011;64831;44.870;37.336;2023-05-15T01:08:43;10.55;;;4.60;;
76103;SDS011;64831;44.870;37.336;2023-05-15T01:11:14;10.07;;;5.50;;
76103;SDS011;64831;44.870;37.336;2023-05-15T01:13:41;9.40;;;4.90;;
76103;SDS011;64831;44.870;37.336;2023-05-15T01:16:08;11.48;;;5.10;;
76103;SDS011;64831;44.870;37.336;2023-05-15T01:18:34;9.70;;;5.40;;
76103;SDS011;64831;44.870;37.336;2023-05-15T01:32:07;8.10;;;4.75;;
76103;SDS011;64831;44.870;37.336;2023-05-15T01:35:00;8.52;;;4.55;;
76103;SDS011;64831;44.870;37.336;2023-05-15T01:37:27;10.57;;;5.15;;
76103;SDS011;64831;44.870;37.336;2023-05-15T01:39:57;8.50;;;4.70;;
76103;SDS011;64831;44.870;37.336;2023-05-15T01:42:26;7.10;;;4.32;;
76103;SDS011;64831;44.870;37.336;2023-05-15T01:44:57;8.93;;;4.20;;
76103;SDS011;64831;44.870;37.336;2023-05-15T01:47:37;7.30;;;4.18;;
76103;SDS011;64831;44.870;37.336;2023-05-15T01:50:06;9.10;;;4.53;;
76103;SDS011;64831;44.870;37.336;2023-05-15T01:52:36;8.52;;;4.55;;
76103;SDS011;64831;44.870;37.336;2023-05-15T01:55:05;8.57;;;4.38;;
76103;SDS011;64831;44.870;37.336;2023-05-15T01:57:32;8.38;;;4.90;;
76103;SDS011;64831;44.870;37.336;2023-05-15T02:00:00;8.63;;;4.75;;
76103;SDS011;64831;44.870;37.336;2023-05-15T02:02:28;10.82;;;4.53;;
76103;SDS011;64831;44.870;37.336;2023-05-15T02:04:55;6.68;;;4.20;;
76103;SDS011;64831;44.870;37.336;2023-05-15T02:07:23;21.13;;;10.15;;
76103;SDS011;64831;44.870;37.336;2023-05-15T02:09:50;12.45;;;5.70;;
76103;SDS011;64831;44.870;37.336;2023-05-15T02:12:17;13.25;;;5.68;;
76103;SDS011;64831;44.870;37.336;2023-05-15T02:14:45;8.68;;;4.70;;
76103;SDS011;64831;44.870;37.336;2023-05-15T02:17:14;8.43;;;4.78;;
76103;SDS011;64831;44.870;37.336;2023-05-15T02:19:40;10.57;;;5.20;;
76103;SDS011;64831;44.870;37.336;2023-05-15T02:22:08;15.88;;;5.93;;
76103;SDS011;64831;44.870;37.336;2023-05-15T02:24:33;7.97;;;5.40;;
76103;SDS011;64831;44.870;37.336;2023-05-15T02:27:04;8.45;;;5.22;;
76103;SDS011;64831;44.870;37.336;2023-05-15T02:32:28;11.98;;;5.60;;
76103;SDS011;64831;44.870;37.336;2023-05-15T02:37:45;10.90;;;5.90;;
76103;SDS011;64831;44.870;37.336;2023-05-15T02:40:13;11.67;;;5.83;;
76103;SDS011;64831;44.870;37.336;2023-05-15T02:42:44;11.48;;;6.25;;
76103;SDS011;64831;44.870;37.336;2023-05-15T02:45:11;16.48;;;6.43;;
76103;SDS011;64831;44.870;37.336;2023-05-15T02:47:38;12.77;;;6.82;;
76103;SDS011;64831;44.870;37.336;2023-05-15T02:50:05;19.05;;;6.43;;
76103;SDS011;64831;44.870;37.336;2023-05-15T02:52:32;10.85;;;6.88;;
76103;SDS011;64831;44.870;37.336;2023-05-15T02:54:59;13.70;;;7.15;;
76103;SDS011;64831;44.870;37.336;2023-05-15T02:57:25;12.13;;;6.65;;
76103;SDS011;64831;44.870;37.336;2023-05-15T02:59:52;14.32;;;7.03;;
76103;SDS011;64831;44.870;37.336;2023-05-15T03:02:19;12.95;;;6.18;;
76103;SDS011;64831;44.870;37.336;2023-05-15T03:04:45;11.48;;;6.45;;
76103;SDS011;64831;44.870;37.336;2023-05-15T03:07:11;10.73;;;6.45;;
76103;SDS011;64831;44.870;37.336;2023-05-15T03:09:39;16.45;;;7.03;;
76103;SDS011;64831;44.870;37.336;2023-05-15T03:12:06;13.25;;;6.30;;
76103;SDS011;64831;44.870;37.336;2023-05-15T03:14:32;16.42;;;6.78;;
76103;SDS011;64831;44.870;37.336;2023-05-15T03:16:58;17.33;;;6.35;;
76103;SDS011;64831;44.870;37.336;2023-05-15T03:19:24;12.93;;;6.78;;
76103;SDS011;64831;44.870;37.336;2023-05-15T03:21:50;16.35;;;6.60;;
76103;SDS011;64831;44.870;37.336;2023-05-15T03:24:16;17.13;;;7.00;;
76103;SDS011;64831;44.870;37.336;2023-05-15T03:26:42;12.45;;;6.78;;
76103;SDS011;64831;44.870;37.336;2023-05-15T03:29:09;13.32;;;6.60;;
76103;SDS011;64831;44.870;37.336;2023-05-15T03:31:35;16.90;;;6.57;;
76103;SDS011;64831;44.870;37.336;2023-05-15T03:34:01;13.45;;;6.57;;
76103;SDS011;64831;44.870;37.336;2023-05-15T03:36:27;13.65;;;7.15;;
76103;SDS011;64831;44.870;37.336;2023-05-15T03:38:53;15.15;;;7.90;;
76103;SDS011;64831;44.870;37.336;2023-05-15T03:41:19;17.27;;;8.00;;
76103;SDS011;64831;44.870;37.336;2023-05-15T03:43:46;13.60;;;7.50;;
76103;SDS011;64831;44.870;37.336;2023-05-15T03:46:15;16.35;;;7.28;;
76103;SDS011;64831;44.870;37.336;2023-05-15T03:48:41;14.32;;;7.70;;
76103;SDS011;64831;44.870;37.336;2023-05-15T03:51:07;12.80;;;7.18;;
76103;SDS011;64831;44.870;37.336;2023-05-15T03:53:33;13.15;;;7.15;;
76103;SDS011;64831;44.870;37.336;2023-05-15T03:55:59;12.27;;;7.82;;
76103;SDS011;64831;44.870;37.336;2023-05-15T03:58:25;14.18;;;7.35;;
76103;SDS011;64831;44.870;37.336;2023-05-15T04:00:51;15.52;;;7.32;;
76103;SDS011;64831;44.870;37.336;2023-05-15T04:03:17;13.85;;;7.25;;
76103;SDS011;64831;44.870;37.336;2023-05-15T04:05:44;17.25;;;7.40;;
76103;SDS011;64831;44.870;37.336;2023-05-15T04:08:14;8.10;;;5.03;;
76103;SDS011;64831;44.870;37.336;2023-05-15T04:10:40;12.05;;;5.97;;
76103;SDS011;64831;44.870;37.336;2023-05-15T04:13:06;13.07;;;5.32;;
76103;SDS011;64831;44.870;37.336;2023-05-15T04:15:33;9.15;;;5.55;;
76103;SDS011;64831;44.870;37.336;2023-05-15T04:17:59;10.48;;;5.50;;
76103;SDS011;64831;44.870;37.336;2023-05-15T04:20:25;9.68;;;5.70;;
76103;SDS011;64831;44.870;37.336;2023-05-15T04:22:51;11.00;;;5.78;;
76103;SDS011;64831;44.870;37.336;2023-05-15T04:25:17;13.50;;;6.18;;
76103;SDS011;64831;44.870;37.336;2023-05-15T04:27:45;16.60;;;5.60;;
76103;SDS011;64831;44.870;37.336;2023-05-15T04:30:11;13.43;;;6.20;;
76103;SDS011;64831;44.870;37.336;2023-05-15T04:32:38;12.45;;;6.07;;
76103;SDS011;64831;44.870;37.336;2023-05-15T04:35:05;15.07;;;6.43;;
76103;SDS011;64831;44.870;37.336;2023-05-15T04:37:35;13.55;;;6.07;;
76103;SDS011;64831;44.870;37.336;2023-05-15T04:40:01;10.48;;;6.20;;
76103;SDS011;64831;44.870;37.336;2023-05-15T04:42:28;10.52;;;6.00;;
76103;SDS011;64831;44.870;37.336;2023-05-15T04:44:54;12.57;;;6.32;;
76103;SDS011;64831;44.870;37.336;2023-05-15T04:47:20;13.10;;;5.32;;
76103;SDS011;64831;44.870;37.336;2023-05-15T04:49:45;17.45;;;6.22;;
76103;SDS011;64831;44.870;37.336;2023-05-15T04:52:15;15.63;;;6.90;;
76103;SDS011;64831;44.870;37.336;2023-05-15T04:54:41;17.75;;;6.25;;
76103;SDS011;64831;44.870;37.336;2023-05-15T04:57:07;12.23;;;6.25;;
76103;SDS011;64831;44.870;37.336;2023-05-15T04:59:33;11.65;;;6.07;;
76103;SDS011;64831;44.870;37.336;2023-05-15T05:02:00;13.35;;;6.30;;
76103;SDS011;64831;44.870;37.336;2023-05-15T05:04:26;18.92;;;6.50;;
76103;SDS011;64831;44.870;37.336;2023-05-15T05:06:53;11.13;;;6.18;;
76103;SDS011;64831;44.870;37.336;2023-05-15T05:09:19;17.30;;;6.65;;
76103;SDS011;64831;44.870;37.336;2023-05-15T05:11:45;18.58;;;6.53;;
76103;SDS011;64831;44.870;37.336;2023-05-15T05:14:14;12.55;;;6.03;;
76103;SDS011;64831;44.870;37.336;2023-05-15T05:16:41;9.10;;;5.30;;
76103;SDS011;64831;44.870;37.336;2023-05-15T05:19:09;11.70;;;5.65;;
76103;SDS011;64831;44.870;37.336;2023-05-15T05:21:35;15.38;;;4.93;;
76103;SDS011;64831;44.870;37.336;2023-05-15T05:24:01;11.25;;;5.93;;
76103;SDS011;64831;44.870;37.336;2023-05-15T05:26:27;9.10;;;5.88;;
76103;SDS011;64831;44.870;37.336;2023-05-15T05:28:53;12.73;;;6.00;;
76103;SDS011;64831;44.870;37.336;2023-05-15T05:31:19;10.13;;;5.85;;
76103;SDS011;64831;44.870;37.336;2023-05-15T05:33:46;13.32;;;6.03;;
76103;SDS011;64831;44.870;37.336;2023-05-15T05:36:14;19.42;;;6.90;;
76103;SDS011;64831;44.870;37.336;2023-05-15T05:38:40;13.20;;;6.00;;
76103;SDS011;64831;44.870;37.336;2023-05-15T05:41:06;11.18;;;5.97;;
76103;SDS011;64831;44.870;37.336;2023-05-15T05:43:32;12.23;;;5.80;;
76103;SDS011;64831;44.870;37.336;2023-05-15T05:45:58;9.25;;;4.97;;
76103;SDS011;64831;44.870;37.336;2023-05-15T05:48:24;8.80;;;4.70;;
76103;SDS011;64831;44.870;37.336;2023-05-15T05:50:51;10.38;;;5.78;;
76103;SDS011;64831;44.870;37.336;2023-05-15T05:53:17;11.52;;;5.72;;
76103;SDS011;64831;44.870;37.336;2023-05-15T05:55:43;15.15;;;5.88;;
76103;SDS011;64831;44.870;37.336;2023-05-15T05:58:09;9.75;;;5.13;;
76103;SDS011;64831;44.870;37.336;2023-05-15T06:00:35;14.70;;;5.07;;
76103;SDS011;64831;44.870;37.336;2023-05-15T06:03:01;9.52;;;4.78;;
76103;SDS011;64831;44.870;37.336;2023-05-15T06:05:27;8.75;;;5.10;;
76103;SDS011;64831;44.870;37.336;2023-05-15T06:07:53;9.32;;;5.00;;
76103;SDS011;64831;44.870;37.336;2023-05-15T06:10:19;11.50;;;5.43;;
76103;SDS011;64831;44.870;37.336;2023-05-15T06:12:46;10.95;;;5.50;;
76103;SDS011;64831;44.870;37.336;2023-05-15T06:15:13;9.93;;;5.15;;
76103;SDS011;64831;44.870;37.336;2023-05-15T06:17:40;13.32;;;4.88;;
76103;SDS011;64831;44.870;37.336;2023-05-15T06:20:06;12.60;;;4.57;;
76103;SDS011;64831;44.870;37.336;2023-05-15T06:22:33;10.38;;;4.97;;
76103;SDS011;64831;44.870;37.336;2023-05-15T06:25:02;9.98;;;5.30;;
76103;SDS011;64831;44.870;37.336;2023-05-15T06:27:29;8.45;;;4.85;;
76103;SDS011;64831;44.870;37.336;2023-05-15T06:29:56;8.30;;;4.72;;
76103;SDS011;64831;44.870;37.336;2023-05-15T06:32:22;12.80;;;5.10;;
76103;SDS011;64831;44.870;37.336;2023-05-15T06:34:48;11.40;;;5.18;;
76103;SDS011;64831;44.870;37.336;2023-05-15T06:37:14;18.95;;;5.30;;
76103;SDS011;64831;44.870;37.336;2023-05-15T06:39:40;7.65;;;4.97;;
76103;SDS011;64831;44.870;37.336;2023-05-15T06:42:06;14.07;;;4.55;;
76103;SDS011;64831;44.870;37.336;2023-05-15T06:44:33;9.52;;;4.90;;
76103;SDS011;64831;44.870;37.336;2023-05-15T06:47:00;9.35;;;4.63;;
76103;SDS011;64831;44.870;37.336;2023-05-15T06:49:26;15.68;;;5.60;;
76103;SDS011;64831;44.870;37.336;2023-05-15T06:51:52;15.00;;;5.13;;
76103;SDS011;64831;44.870;37.336;2023-05-15T06:54:19;11.98;;;5.00;;
76103;SDS011;64831;44.870;37.336;2023-05-15T06:56:45;11.70;;;5.05;;
76103;SDS011;64831;44.870;37.336;2023-05-15T06:59:11;11.88;;;4.90;;
76103;SDS011;64831;44.870;37.336;2023-05-15T07:01:37;9.35;;;4.80;;
76103;SDS011;64831;44.870;37.336;2023-05-15T07:04:03;10.13;;;4.65;;
76103;SDS011;64831;44.870;37.336;2023-05-15T07:06:30;10.68;;;5.05;;
76103;SDS011;64831;44.870;37.336;2023-05-15T07:08:59;13.38;;;5.82;;
76103;SDS011;64831;44.870;37.336;2023-05-15T07:11:25;12.02;;;5.10;;
76103;SDS011;64831;44.870;37.336;2023-05-15T07:13:52;9.48;;;5.07;;
76103;SDS011;64831;44.870;37.336;2023-05-15T07:16:18;13.75;;;5.22;;
76103;SDS011;64831;44.870;37.336;2023-05-15T07:18:44;10.45;;;5.53;;
76103;SDS011;64831;44.870;37.336;2023-05-15T07:21:10;14.45;;;6.28;;
76103;SDS011;64831;44.870;37.336;2023-05-15T07:23:36;13.65;;;5.22;;
76103;SDS011;64831;44.870;37.336;2023-05-15T07:26:02;8.30;;;3.40;;
76103;SDS011;64831;44.870;37.336;2023-05-15T07:28:28;16.20;;;5.00;;
76103;SDS011;64831;44.870;37.336;2023-05-15T07:30:53;10.85;;;5.15;;
76103;SDS011;64831;44.870;37.336;2023-05-15T07:33:19;10.05;;;4.97;;
76103;SDS011;64831;44.870;37.336;2023-05-15T07:35:45;12.02;;;5.32;;
76103;SDS011;64831;44.870;37.336;2023-05-15T07:38:11;11.90;;;4.78;;
76103;SDS011;64831;44.870;37.336;2023-05-15T07:40:37;11.55;;;6.80;;
76103;SDS011;64831;44.870;37.336;2023-05-15T07:43:03;9.23;;;4.70;;
76103;SDS011;64831;44.870;37.336;2023-05-15T07:45:29;12.50;;;4.95;;
76103;SDS011;64831;44.870;37.336;2023-05-15T07:47:54;15.82;;;5.95;;
76103;SDS011;64831;44.870;37.336;2023-05-15T07:50:22;7.40;;;4.65;;
76103;SDS011;64831;44.870;37.336;2023-05-15T07:52:51;11.93;;;4.90;;
76103;SDS011;64831;44.870;37.336;2023-05-15T07:55:17;14.52;;;5.43;;
76103;SDS011;64831;44.870;37.336;2023-05-15T07:57:43;9.00;;;4.45;;
76103;SDS011;64831;44.870;37.336;2023-05-15T08:00:09;9.18;;;4.45;;
76103;SDS011;64831;44.870;37.336;2023-05-15T08:02:39;10.52;;;5.03;;
76103;SDS011;64831;44.870;37.336;2023-05-15T08:05:06;15.20;;;4.72;;
76103;SDS011;64831;44.870;37.336;2023-05-15T08:07:33;13.95;;;4.47;;
76103;SDS011;64831;44.870;37.336;2023-05-15T08:09:59;9.57;;;4.82;;
76103;SDS011;64831;44.870;37.336;2023-05-15T08:12:25;10.45;;;4.38;;
76103;SDS011;64831;44.870;37.336;2023-05-15T08:14:52;13.68;;;4.88;;
76103;SDS011;64831;44.870;37.336;2023-05-15T08:17:19;9.20;;;4.03;;
76103;SDS011;64831;44.870;37.336;2023-05-15T08:19:46;10.80;;;4.10;;
76103;SDS011;64831;44.870;37.336;2023-05-15T08:22:12;12.30;;;4.40;;
76103;SDS011;64831;44.870;37.336;2023-05-15T08:24:39;11.25;;;4.50;;
76103;SDS011;64831;44.870;37.336;2023-05-15T08:27:06;6.97;;;4.20;;
76103;SDS011;64831;44.870;37.336;2023-05-15T08:29:33;8.77;;;4.45;;
76103;SDS011;64831;44.870;37.336;2023-05-15T08:32:00;11.02;;;3.72;;
76103;SDS011;64831;44.870;37.336;2023-05-15T08:34:27;7.53;;;4.03;;
76103;SDS011;64831;44.870;37.336;2023-05-15T08:36:53;7.60;;;3.78;;
76103;SDS011;64831;44.870;37.336;2023-05-15T08:39:20;7.60;;;4.13;;
76103;SDS011;64831;44.870;37.336;2023-05-15T08:41:55;7.07;;;4.15;;
76103;SDS011;64831;44.870;37.336;2023-05-15T08:44:22;10.27;;;3.97;;
76103;SDS011;64831;44.870;37.336;2023-05-15T08:46:48;7.63;;;3.80;;
76103;SDS011;64831;44.870;37.336;2023-05-15T08:49:18;5.75;;;3.42;;
76103;SDS011;64831;44.870;37.336;2023-05-15T08:51:45;5.00;;;3.90;;
76103;SDS011;64831;44.870;37.336;2023-05-15T08:54:12;8.27;;;4.47;;
76103;SDS011;64831;44.870;37.336;2023-05-15T08:56:40;9.98;;;4.07;;
76103;SDS011;64831;44.870;37.336;2023-05-15T08:59:06;6.68;;;3.85;;
76103;SDS011;64831;44.870;37.336;2023-05-15T09:01:32;9.73;;;4.00;;
76103;SDS011;64831;44.870;37.336;2023-05-15T09:03:58;10.73;;;3.80;;
76103;SDS011;64831;44.870;37.336;2023-05-15T09:06:24;15.30;;;4.70;;
76103;SDS011;64831;44.870;37.336;2023-05-15T09:08:51;9.85;;;4.53;;
76103;SDS011;64831;44.870;37.336;2023-05-15T09:11:23;7.97;;;4.47;;
76103;SDS011;64831;44.870;37.336;2023-05-15T09:13:51;9.57;;;3.80;;
76103;SDS011;64831;44.870;37.336;2023-05-15T09:16:18;10.52;;;4.20;;
76103;SDS011;64831;44.870;37.336;2023-05-15T09:18:45;6.32;;;4.13;;
76103;SDS011;64831;44.870;37.336;2023-05-15T09:21:26;7.53;;;4.30;;
76103;SDS011;64831;44.870;37.336;2023-05-15T09:23:54;10.45;;;4.47;;
76103;SDS011;64831;44.870;37.336;2023-05-15T09:26:39;17.35;;;4.88;;
76103;SDS011;64831;44.870;37.336;2023-05-15T09:29:06;6.05;;;4.68;;
76103;SDS011;64831;44.870;37.336;2023-05-15T09:31:33;8.05;;;3.85;;
76103;SDS011;64831;44.870;37.336;2023-05-15T09:34:00;9.63;;;4.38;;
76103;SDS011;64831;44.870;37.336;2023-05-15T09:36:29;9.73;;;4.05;;
76103;SDS011;64831;44.870;37.336;2023-05-15T09:38:58;7.43;;;4.18;;
76103;SDS011;64831;44.870;37.336;2023-05-15T09:41:25;7.70;;;4.10;;
76103;SDS011;64831;44.870;37.336;2023-05-15T09:43:52;7.72;;;4.32;;
76103;SDS011;64831;44.870;37.336;2023-05-15T09:46:21;8.80;;;4.47;;
76103;SDS011;64831;44.870;37.336;2023-05-15T09:48:48;8.68;;;4.07;;
76103;SDS011;64831;44.870;37.336;2023-05-15T09:51:18;9.30;;;4.00;;
76103;SDS011;64831;44.870;37.336;2023-05-15T09:53:51;9.63;;;4.43;;
76103;SDS011;64831;44.870;37.336;2023-05-15T09:56:17;8.43;;;4.55;;
76103;SDS011;64831;44.870;37.336;2023-05-15T10:01:19;8.68;;;4.50;;
76103;SDS011;64831;44.870;37.336;2023-05-15T10:03:56;5.88;;;4.40;;
76103;SDS011;64831;44.870;37.336;2023-05-15T10:06:24;6.07;;;4.40;;
76103;SDS011;64831;44.870;37.336;2023-05-15T10:08:50;11.20;;;4.60;;
76103;SDS011;64831;44.870;37.336;2023-05-15T10:11:19;9.63;;;4.35;;
76103;SDS011;64831;44.870;37.336;2023-05-15T10:13:48;11.88;;;4.82;;
76103;SDS011;64831;44.870;37.336;2023-05-15T10:16:14;8.63;;;4.20;;
76103;SDS011;64831;44.870;37.336;2023-05-15T10:18:40;8.68;;;3.67;;
76103;SDS011;64831;44.870;37.336;2023-05-15T10:21:08;12.25;;;4.18;;
76103;SDS011;64831;44.870;37.336;2023-05-15T10:23:34;9.15;;;4.35;;
76103;SDS011;64831;44.870;37.336;2023-05-15T10:26:03;13.00;;;4.53;;
76103;SDS011;64831;44.870;37.336;2023-05-15T10:28:33;9.93;;;4.38;;
76103;SDS011;64831;44.870;37.336;2023-05-15T10:31:00;7.32;;;4.18;;
76103;SDS011;64831;44.870;37.336;2023-05-15T10:33:28;8.95;;;4.57;;
76103;SDS011;64831;44.870;37.336;2023-05-15T10:35:55;9.95;;;4.10;;
76103;SDS011;64831;44.870;37.336;2023-05-15T10:38:21;10.50;;;4.68;;
76103;SDS011;64831;44.870;37.336;2023-05-15T10:40:48;8.82;;;3.95;;
76103;SDS011;64831;44.870;37.336;2023-05-15T10:43:15;6.38;;;4.03;;
76103;SDS011;64831;44.870;37.336;2023-05-15T10:45:41;9.43;;;3.90;;
76103;SDS011;64831;44.870;37.336;2023-05-15T10:48:08;8.60;;;4.05;;
76103;SDS011;64831;44.870;37.336;2023-05-15T10:50:36;12.38;;;4.38;;
76103;SDS011;64831;44.870;37.336;2023-05-15T10:53:02;13.65;;;3.65;;
76103;SDS011;64831;44.870;37.336;2023-05-15T10:55:28;7.82;;;3.80;;
76103;SDS011;64831;44.870;37.336;2023-05-15T10:57:55;6.10;;;3.90;;
76103;SDS011;64831;44.870;37.336;2023-05-15T11:02:47;7.55;;;3.92;;
76103;SDS011;64831;44.870;37.336;2023-05-15T11:05:14;7.70;;;3.85;;
76103;SDS011;64831;44.870;37.336;2023-05-15T11:07:40;8.52;;;4.55;;
76103;SDS011;64831;44.870;37.336;2023-05-15T11:12:55;8.40;;;3.63;;
76103;SDS011;64831;44.870;37.336;2023-05-15T11:15:21;8.70;;;4.38;;
76103;SDS011;64831;44.870;37.336;2023-05-15T11:18:06;7.03;;;3.70;;
76103;SDS011;64831;44.870;37.336;2023-05-15T11:23:06;5.45;;;3.55;;
76103;SDS011;64831;44.870;37.336;2023-05-15T11:25:33;8.38;;;3.25;;
76103;SDS011;64831;44.870;37.336;2023-05-15T11:28:00;8.68;;;3.13;;
76103;SDS011;64831;44.870;37.336;2023-05-15T11:33:03;7.30;;;4.28;;
76103;SDS011;64831;44.870;37.336;2023-05-15T11:38:23;6.90;;;4.10;;
76103;SDS011;64831;44.870;37.336;2023-05-15T11:40:50;7.72;;;4.10;;
76103;SDS011;64831;44.870;37.336;2023-05-15T11:43:30;9.50;;;4.03;;
76103;SDS011;64831;44.870;37.336;2023-05-15T11:48:34;8.38;;;4.22;;
76103;SDS011;64831;44.870;37.336;2023-05-15T11:51:00;7.20;;;4.50;;
76103;SDS011;64831;44.870;37.336;2023-05-15T11:53:30;7.78;;;4.50;;
76103;SDS011;64831;44.870;37.336;2023-05-15T11:55:57;5.55;;;4.07;;
76103;SDS011;64831;44.870;37.336;2023-05-15T11:58:24;11.98;;;4.00;;
76103;SDS011;64831;44.870;37.336;2023-05-15T12:00:51;6.93;;;3.42;;
76103;SDS011;64831;44.870;37.336;2023-05-15T12:03:22;10.60;;;3.90;;
76103;SDS011;64831;44.870;37.336;2023-05-15T12:05:50;7.78;;;3.15;;
76103;SDS011;64831;44.870;37.336;2023-05-15T12:08:17;7.03;;;3.58;;
76103;SDS011;64831;44.870;37.336;2023-05-15T12:10:48;20.80;;;3.75;;
76103;SDS011;64831;44.870;37.336;2023-05-15T12:13:14;7.55;;;3.50;;
76103;SDS011;64831;44.870;37.336;2023-05-15T12:15:43;5.55;;;3.65;;
76103;SDS011;64831;44.870;37.336;2023-05-15T12:18:11;10.10;;;3.85;;
76103;SDS011;64831;44.870;37.336;2023-05-15T12:20:38;7.00;;;3.72;;
76103;SDS011;64831;44.870;37.336;2023-05-15T12:23:15;8.75;;;3.75;;
76103;SDS011;64831;44.870;37.336;2023-05-15T12:28:08;5.47;;;3.13;;
76103;SDS011;64831;44.870;37.336;2023-05-15T12:30:36;7.90;;;3.17;;
76103;SDS011;64831;44.870;37.336;2023-05-15T12:33:03;9.68;;;3.35;;
76103;SDS011;64831;44.870;37.336;2023-05-15T12:35:34;5.78;;;3.75;;
76103;SDS011;64831;44.870;37.336;2023-05-15T12:38:04;16.23;;;4.32;;
76103;SDS011;64831;44.870;37.336;2023-05-15T12:40:37;11.52;;;4.28;;
76103;SDS011;64831;44.870;37.336;2023-05-15T12:43:03;5.97;;;3.55;;
76103;SDS011;64831;44.870;37.336;2023-05-15T12:45:31;9.18;;;4.72;;
76103;SDS011;64831;44.870;37.336;2023-05-15T12:47:59;9.60;;;4.53;;
76103;SDS011;64831;44.870;37.336;2023-05-15T12:50:25;9.75;;;4.63;;
76103;SDS011;64831;44.870;37.336;2023-05-15T12:52:55;8.13;;;4.65;;
76103;SDS011;64831;44.870;37.336;2023-05-15T12:55:23;11.25;;;4.80;;
76103;SDS011;64831;44.870;37.336;2023-05-15T13:00:20;9.63;;;4.65;;
76103;SDS011;64831;44.870;37.336;2023-05-15T13:02:51;7.45;;;3.58;;
76103;SDS011;64831;44.870;37.336;2023-05-15T13:05:19;8.18;;;4.28;;
76103;SDS011;64831;44.870;37.336;2023-05-15T13:07:46;5.78;;;4.10;;
76103;SDS011;64831;44.870;37.336;2023-05-15T13:10:13;6.50;;;3.60;;
76103;SDS011;64831;44.870;37.336;2023-05-15T13:12:44;10.63;;;4.72;;
76103;SDS011;64831;44.870;37.336;2023-05-15T13:15:32;14.15;;;4.43;;
76103;SDS011;64831;44.870;37.336;2023-05-15T13:18:02;9.55;;;3.10;;
76103;SDS011;64831;44.870;37.336;2023-05-15T13:20:41;7.88;;;4.28;;
76103;SDS011;64831;44.870;37.336;2023-05-15T13:25:39;8.25;;;3.42;;
76103;SDS011;64831;44.870;37.336;2023-05-15T13:28:05;9.23;;;3.80;;
76103;SDS011;64831;44.870;37.336;2023-05-15T13:30:32;6.38;;;3.88;;
76103;SDS011;64831;44.870;37.336;2023-05-15T13:32:59;15.77;;;3.70;;
76103;SDS011;64831;44.870;37.336;2023-05-15T13:35:26;7.45;;;3.47;;
76103;SDS011;64831;44.870;37.336;2023-05-15T13:37:52;9.73;;;3.90;;
76103;SDS011;64831;44.870;37.336;2023-05-15T13:40:18;9.27;;;3.75;;
76103;SDS011;64831;44.870;37.336;2023-05-15T13:42:45;8.73;;;3.90;;
76103;SDS011;64831;44.870;37.336;2023-05-15T13:45:12;5.38;;;3.55;;
76103;SDS011;64831;44.870;37.336;2023-05-15T13:47:39;7.38;;;3.75;;
76103;SDS011;64831;44.870;37.336;2023-05-15T13:50:08;12.32;;;4.45;;
76103;SDS011;64831;44.870;37.336;2023-05-15T13:52:36;8.48;;;3.78;;
76103;SDS011;64831;44.870;37.336;2023-05-15T13:55:03;7.05;;;3.60;;
76103;SDS011;64831;44.870;37.336;2023-05-15T13:57:30;6.43;;;3.83;;
76103;SDS011;64831;44.870;37.336;2023-05-15T13:59:56;6.85;;;3.45;;
76103;SDS011;64831;44.870;37.336;2023-05-15T14:02:22;7.55;;;3.20;;
76103;SDS011;64831;44.870;37.336;2023-05-15T14:04:52;7.28;;;3.90;;
76103;SDS011;64831;44.870;37.336;2023-05-15T14:07:20;4.90;;;3.13;;
76103;SDS011;64831;44.870;37.336;2023-05-15T14:09:47;7.82;;;3.55;;
76103;SDS011;64831;44.870;37.336;2023-05-15T14:12:13;10.70;;;3.90;;
76103;SDS011;64831;44.870;37.336;2023-05-15T14:14:39;5.22;;;3.40;;
76103;SDS011;64831;44.870;37.336;2023-05-15T14:17:08;8.15;;;4.32;;
76103;SDS011;64831;44.870;37.336;2023-05-15T14:19:34;5.47;;;3.50;;
76103;SDS011;64831;44.870;37.336;2023-05-15T14:22:00;7.55;;;3.22;;
76103;SDS011;64831;44.870;37.336;2023-05-15T14:24:26;10.10;;;4.55;;
76103;SDS011;64831;44.870;37.336;2023-05-15T14:26:52;11.00;;;4.38;;
76103;SDS011;64831;44.870;37.336;2023-05-15T14:29:18;10.02;;;4.95;;
76103;SDS011;64831;44.870;37.336;2023-05-15T14:31:44;9.23;;;4.32;;
76103;SDS011;64831;44.870;37.336;2023-05-15T14:34:10;4.68;;;3.25;;
76103;SDS011;64831;44.870;37.336;2023-05-15T14:36:36;5.20;;;3.22;;
76103;SDS011;64831;44.870;37.336;2023-05-15T14:39:02;7.72;;;4.50;;
76103;SDS011;64831;44.870;37.336;2023-05-15T14:41:28;6.07;;;3.63;;
76103;SDS011;64831;44.870;37.336;2023-05-15T14:43:54;5.60;;;3.85;;
76103;SDS011;64831;44.870;37.336;2023-05-15T14:46:20;6.40;;;3.63;;
76103;SDS011;64831;44.870;37.336;2023-05-15T14:48:46;7.22;;;3.95;;
76103;SDS011;64831;44.870;37.336;2023-05-15T14:51:12;5.97;;;3.45;;
76103;SDS011;64831;44.870;37.336;2023-05-15T14:53:38;9.23;;;3.78;;
76103;SDS011;64831;44.870;37.336;2023-05-15T14:56:04;11.05;;;5.43;;
76103;SDS011;64831;44.870;37.336;2023-05-15T14:58:30;5.15;;;3.70;;
76103;SDS011;64831;44.870;37.336;2023-05-15T15:00:56;6.63;;;4.00;;
76103;SDS011;64831;44.870;37.336;2023-05-15T15:03:22;4.97;;;3.53;;
76103;SDS011;64831;44.870;37.336;2023-05-15T15:05:49;7.30;;;3.78;;
76103;SDS011;64831;44.870;37.336;2023-05-15T15:08:17;7.93;;;3.13;;
76103;SDS011;64831;44.870;37.336;2023-05-15T15:10:44;7.03;;;3.65;;